NCAR-RAP Real-Time Weather Data

Output produced by METARs form (23 November 2014  20:49 UTC)
found at http://weather.rap.ucar.edu/surface/
 
Conditions at: KSDF observed 23 November 2014  20:17 UTC
Temperature: 12.2°C (54°F)
Dewpoint: 11.1°C (52°F) [RH = 93%]
Pressure (altimeter): 29.58 inches Hg (1001.8 mb)
Winds: from the SE (130 degrees) at 12 MPH (10 knots; 5.2 m/s)
Visibility: 4 miles (6 km)
Ceiling: 1200 feet AGL
Clouds: broken clouds at 1200 feet AGL
broken clouds at 3900 feet AGL
overcast cloud deck at 4800 feet AGL
Present Weather: -RA BR  (light rain, mist)
SOME DATA ABOVE MAY BE INACCURATE!!!
"$" is an indication the sensor requires maintenance
KSDF 232017Z 13010KT 4SM -RA BR BKN012 BKN039 OVC048 12/11 A2958 RMK AO2 PRESFR P0002 T01220111 $